createdAt,value
2023-04-27T00:01:44.026Z,6.13
2023-04-27T00:04:11.166Z,5.17
2023-04-27T00:06:38.337Z,5.73
2023-04-27T00:09:05.402Z,5.37
2023-04-27T00:11:32.554Z,5.07
2023-04-27T00:13:59.556Z,5.30
2023-04-27T00:16:26.749Z,4.93
2023-04-27T00:18:54.100Z,5.63
2023-04-27T00:21:21.249Z,4.73
2023-04-27T00:23:48.316Z,5.07
2023-04-27T00:26:15.340Z,5.70
2023-04-27T00:28:42.358Z,4.57
2023-04-27T00:31:09.387Z,5.63
2023-04-27T00:33:36.406Z,4.83
2023-04-27T00:36:03.679Z,4.77
2023-04-27T00:38:31.348Z,6.03
2023-04-27T00:41:07.747Z,5.53
2023-04-27T00:43:43.849Z,5.67
2023-04-27T00:46:13.915Z,5.00
2023-04-27T00:48:42.109Z,5.77
2023-04-27T00:51:09.196Z,4.80
2023-04-27T00:53:37.661Z,5.80
2023-04-27T00:56:08.088Z,5.13
2023-04-27T00:58:35.190Z,5.83
2023-04-27T01:01:02.366Z,5.13
2023-04-27T01:03:30.727Z,5.03
2023-04-27T01:06:01.547Z,5.27
2023-04-27T01:08:29.923Z,4.83
2023-04-27T01:10:57.189Z,5.50
2023-04-27T01:13:24.408Z,5.30
2023-04-27T01:15:51.451Z,5.90
2023-04-27T01:18:18.557Z,5.60
2023-04-27T01:20:45.569Z,5.50
2023-04-27T01:23:17.299Z,4.60
2023-04-27T01:25:44.867Z,5.47
2023-04-27T01:28:12.025Z,5.77
2023-04-27T01:30:39.271Z,5.87
2023-04-27T01:33:06.360Z,5.57
2023-04-27T01:35:33.391Z,6.30
2023-04-27T01:38:01.419Z,5.80
2023-04-27T01:40:28.576Z,6.53
2023-04-27T01:42:56.171Z,5.80
2023-04-27T01:45:23.293Z,6.13
2023-04-27T01:47:53.615Z,6.20
2023-04-27T01:50:20.970Z,6.03
2023-04-27T01:52:47.990Z,7.07
2023-04-27T01:55:15.072Z,5.57
2023-04-27T01:57:42.076Z,6.47
2023-04-27T02:00:09.824Z,6.07
2023-04-27T02:02:36.927Z,6.43
2023-04-27T02:05:04.478Z,6.43
2023-04-27T02:07:31.547Z,5.97
2023-04-27T02:09:58.561Z,5.83
2023-04-27T02:12:25.591Z,7.07
2023-04-27T02:14:52.581Z,5.77
2023-04-27T02:17:19.574Z,6.57
2023-04-27T02:19:46.565Z,6.70
2023-04-27T02:22:13.668Z,7.57
2023-04-27T02:24:40.629Z,5.50
2023-04-27T02:27:07.660Z,7.57
2023-04-27T02:29:38.914Z,7.70
2023-04-27T02:32:07.330Z,7.97
2023-04-27T02:34:34.398Z,6.93
2023-04-27T02:37:01.473Z,6.47
2023-04-27T02:39:28.494Z,7.63
2023-04-27T02:41:55.482Z,6.13
2023-04-27T02:44:22.514Z,7.27
2023-04-27T02:46:50.729Z,7.50
2023-04-27T02:49:17.753Z,6.73
2023-04-27T02:51:44.849Z,7.13
2023-04-27T02:54:12.020Z,8.93
2023-04-27T02:56:39.120Z,8.97
2023-04-27T02:59:06.179Z,8.93
2023-04-27T03:01:33.207Z,9.40
2023-04-27T03:04:00.573Z,9.33
2023-04-27T03:06:27.792Z,8.77
2023-04-27T03:08:54.749Z,9.87
2023-04-27T03:11:21.740Z,10.23
2023-04-27T03:13:48.726Z,9.80
2023-04-27T03:16:15.790Z,10.00
2023-04-27T03:18:42.841Z,10.07
2023-04-27T03:21:13.533Z,9.20
2023-04-27T03:23:40.791Z,10.03
2023-04-27T03:26:09.873Z,10.03
2023-04-27T03:28:38.397Z,10.57
2023-04-27T03:31:07.482Z,10.03
2023-04-27T03:33:35.015Z,10.87
2023-04-27T03:36:02.653Z,9.77
2023-04-27T03:38:30.292Z,10.47
2023-04-27T03:40:57.993Z,9.57
2023-04-27T03:43:26.168Z,9.67
2023-04-27T03:45:53.726Z,9.80
2023-04-27T03:48:21.054Z,11.13
2023-04-27T03:50:48.330Z,10.53
2023-04-27T03:53:15.922Z,10.07
2023-04-27T03:55:44.791Z,10.27
2023-04-27T03:58:12.384Z,9.77
2023-04-27T04:00:40.101Z,10.00
2023-04-27T04:03:08.149Z,9.47
2023-04-27T04:05:35.575Z,9.97
2023-04-27T04:08:02.666Z,9.50
2023-04-27T04:10:29.743Z,10.90
2023-04-27T04:12:56.777Z,10.40
2023-04-27T04:15:23.858Z,10.07
2023-04-27T04:17:51.301Z,9.90
2023-04-27T04:20:18.554Z,9.57
2023-04-27T04:22:45.674Z,9.27
2023-04-27T04:25:13.183Z,10.17
2023-04-27T04:27:41.131Z,9.83
2023-04-27T04:30:08.786Z,9.73
2023-04-27T04:32:38.129Z,9.57
2023-04-27T04:35:08.633Z,9.17
2023-04-27T04:37:36.525Z,10.70
2023-04-27T04:40:10.974Z,10.73
2023-04-27T04:42:38.570Z,9.27
2023-04-27T04:45:07.317Z,10.10
2023-04-27T04:47:34.691Z,8.65
2023-04-27T04:50:02.153Z,8.13
2023-04-27T04:52:29.353Z,8.90
2023-04-27T04:54:56.411Z,8.95
2023-04-27T04:57:23.522Z,9.05
2023-04-27T04:59:50.925Z,9.10
2023-04-27T05:02:17.976Z,8.40
2023-04-27T05:04:45.781Z,8.48
2023-04-27T05:07:14.909Z,8.77
2023-04-27T05:09:42.618Z,8.65
2023-04-27T05:12:10.260Z,8.57
2023-04-27T05:14:37.331Z,8.57
2023-04-27T05:17:04.378Z,8.38
2023-04-27T05:19:31.795Z,9.00
2023-04-27T05:21:59.430Z,8.35
2023-04-27T05:24:27.194Z,8.15
2023-04-27T05:26:54.992Z,8.05
2023-04-27T05:29:22.794Z,8.55
2023-04-27T05:31:49.879Z,7.68
2023-04-27T05:34:17.062Z,8.43
2023-04-27T05:36:44.178Z,7.55
2023-04-27T05:39:11.346Z,9.18
2023-04-27T05:41:38.711Z,9.48
2023-04-27T05:44:06.648Z,8.88
2023-04-27T05:46:33.821Z,8.90
2023-04-27T05:49:01.604Z,8.00
2023-04-27T05:51:28.971Z,9.07
2023-04-27T05:53:56.033Z,10.18
2023-04-27T05:56:23.296Z,9.82
2023-04-27T05:58:50.300Z,9.95
2023-04-27T06:01:17.420Z,8.75
2023-04-27T06:03:44.652Z,9.05
2023-04-27T06:06:11.879Z,7.63
2023-04-27T06:08:39.587Z,7.93
2023-04-27T06:11:06.975Z,8.35
2023-04-27T06:13:34.179Z,8.00
2023-04-27T06:16:01.971Z,8.18
2023-04-27T06:18:29.180Z,8.02
2023-04-27T06:21:02.778Z,9.93
2023-04-27T06:23:30.034Z,7.53
2023-04-27T06:25:58.840Z,8.20
2023-04-27T06:28:26.289Z,8.45
2023-04-27T06:30:54.663Z,8.93
2023-04-27T06:33:21.916Z,7.03
2023-04-27T06:35:48.946Z,7.63
2023-04-27T06:38:16.705Z,7.32
2023-04-27T06:40:44.931Z,7.55
2023-04-27T06:43:11.923Z,7.75
2023-04-27T06:45:38.875Z,6.93
2023-04-27T06:48:06.080Z,7.63
2023-04-27T06:50:33.173Z,7.78
2023-04-27T06:53:00.195Z,6.75
2023-04-27T06:55:27.207Z,6.95
2023-04-27T06:57:54.233Z,7.00
2023-04-27T07:00:21.619Z,7.40
2023-04-27T07:02:48.714Z,7.13
2023-04-27T07:05:16.462Z,6.80
2023-04-27T07:07:43.492Z,6.75
2023-04-27T07:10:11.102Z,8.05
2023-04-27T07:12:38.695Z,7.03
2023-04-27T07:15:07.270Z,7.25
2023-04-27T07:17:34.470Z,7.35
2023-04-27T07:20:06.441Z,7.00
2023-04-27T07:22:33.816Z,7.82
2023-04-27T07:25:01.034Z,7.68
2023-04-27T07:27:28.170Z,7.45
2023-04-27T07:29:55.279Z,7.38
2023-04-27T07:32:22.907Z,7.15
2023-04-27T07:34:54.207Z,7.25
2023-04-27T07:37:22.932Z,6.40
2023-04-27T07:39:52.088Z,7.65
2023-04-27T07:42:22.320Z,8.35
2023-04-27T07:44:50.391Z,7.55
2023-04-27T07:47:20.507Z,7.50
2023-04-27T07:49:48.123Z,12.23
2023-04-27T07:52:15.952Z,8.38
2023-04-27T07:54:43.280Z,6.53
2023-04-27T07:57:11.883Z,5.85
2023-04-27T07:59:39.729Z,6.38
2023-04-27T08:02:19.275Z,6.60
2023-04-27T08:04:48.594Z,5.60
2023-04-27T08:07:17.556Z,7.18
2023-04-27T08:09:44.895Z,6.05
2023-04-27T08:12:11.946Z,6.50
2023-04-27T08:14:38.982Z,6.10
2023-04-27T08:17:06.390Z,6.35
2023-04-27T08:19:33.537Z,7.28
2023-04-27T08:22:01.116Z,7.00
2023-04-27T08:24:28.118Z,6.63
2023-04-27T08:26:55.253Z,6.68
2023-04-27T08:29:27.781Z,6.18
2023-04-27T08:31:58.682Z,6.93
2023-04-27T08:34:26.070Z,6.35
2023-04-27T08:36:54.174Z,5.38
2023-04-27T08:39:21.908Z,3.67
2023-04-27T08:41:49.110Z,4.15
2023-04-27T08:44:16.269Z,3.85
2023-04-27T08:46:44.555Z,3.47
2023-04-27T08:49:12.754Z,3.22
2023-04-27T08:51:41.652Z,3.20
2023-04-27T08:54:08.853Z,3.63
2023-04-27T08:56:35.883Z,3.83
2023-04-27T08:59:05.807Z,3.50
2023-04-27T09:01:34.453Z,3.47
2023-04-27T09:04:02.406Z,4.05
2023-04-27T09:06:34.797Z,2.90
2023-04-27T09:09:03.423Z,4.78
2023-04-27T09:11:40.845Z,3.47
2023-04-27T09:14:20.310Z,2.90
2023-04-27T09:16:59.418Z,2.60
2023-04-27T09:19:30.830Z,2.78
2023-04-27T09:22:11.199Z,3.10
2023-04-27T09:24:38.463Z,2.70
2023-04-27T09:27:08.945Z,2.90
2023-04-27T09:29:38.156Z,3.17
2023-04-27T09:32:20.745Z,3.78
2023-04-27T09:34:48.178Z,2.85
2023-04-27T09:37:15.711Z,3.80
2023-04-27T09:39:43.470Z,3.83
2023-04-27T09:42:12.627Z,3.60
2023-04-27T09:44:39.804Z,2.90
2023-04-27T09:47:07.444Z,3.53
2023-04-27T09:49:36.339Z,3.17
2023-04-27T09:52:04.245Z,3.30
2023-04-27T09:54:34.568Z,2.80
2023-04-27T09:57:37.545Z,3.03
2023-04-27T10:00:26.389Z,2.97
2023-04-27T10:03:11.973Z,3.05
2023-04-27T10:06:04.739Z,3.53
2023-04-27T10:08:35.848Z,3.42
2023-04-27T10:11:15.565Z,3.00
2023-04-27T10:13:54.445Z,2.58
2023-04-27T10:16:22.488Z,3.03
2023-04-27T10:18:56.260Z,4.00
2023-04-27T10:21:23.915Z,3.10
2023-04-27T10:23:52.458Z,2.63
2023-04-27T10:26:27.908Z,2.45
2023-04-27T10:29:09.227Z,2.35
2023-04-27T10:31:43.341Z,2.90
2023-04-27T10:34:20.581Z,2.50
2023-04-27T10:36:48.444Z,2.05
2023-04-27T10:39:27.612Z,2.47
2023-04-27T10:41:59.988Z,2.75
2023-04-27T10:44:29.853Z,3.35
2023-04-27T10:47:02.551Z,5.22
2023-04-27T10:49:30.689Z,3.47
2023-04-27T10:51:59.633Z,2.90
2023-04-27T10:54:30.184Z,2.42
2023-04-27T10:57:09.194Z,2.42
2023-04-27T10:59:49.859Z,2.60
2023-04-27T11:02:17.537Z,2.70
2023-04-27T11:04:44.627Z,2.50
2023-04-27T11:07:12.353Z,3.08
2023-04-27T11:09:42.598Z,2.08
2023-04-27T11:12:13.911Z,2.35
2023-04-27T11:14:41.084Z,3.08
2023-04-27T11:17:09.190Z,2.55
2023-04-27T11:19:48.694Z,1.73
2023-04-27T11:22:19.213Z,2.80
2023-04-27T11:24:50.987Z,2.78
2023-04-27T11:27:19.180Z,2.08
2023-04-27T11:29:46.574Z,2.60
2023-04-27T11:32:23.917Z,2.67
2023-04-27T11:34:56.067Z,2.40
2023-04-27T11:37:27.675Z,2.53
2023-04-27T11:39:57.477Z,2.47
2023-04-27T11:42:28.936Z,4.22
2023-04-27T11:45:00.570Z,3.20
2023-04-27T11:47:30.503Z,2.55
2023-04-27T11:50:01.237Z,2.75
2023-04-27T11:52:33.471Z,2.53
2023-04-27T11:55:02.627Z,3.03
2023-04-27T11:57:32.910Z,2.58
2023-04-27T12:00:02.609Z,4.10
2023-04-27T12:02:31.477Z,3.10
2023-04-27T12:04:59.952Z,3.72
2023-04-27T12:07:27.280Z,2.50
2023-04-27T12:09:54.499Z,2.65
2023-04-27T12:12:24.388Z,2.50
2023-04-27T12:14:51.987Z,2.42
2023-04-27T12:17:19.679Z,2.20
2023-04-27T12:19:46.706Z,2.25
2023-04-27T12:22:14.504Z,2.15
2023-04-27T12:24:41.474Z,1.85
2023-04-27T12:27:08.609Z,2.03
2023-04-27T12:29:35.645Z,3.10
2023-04-27T12:32:02.622Z,2.13
2023-04-27T12:34:29.714Z,2.58
2023-04-27T12:36:56.958Z,2.47
2023-04-27T12:39:27.041Z,2.53
2023-04-27T12:41:54.883Z,2.47
2023-04-27T12:44:22.760Z,2.67
2023-04-27T12:46:50.613Z,2.05
2023-04-27T12:49:18.114Z,1.90
2023-04-27T12:51:47.931Z,2.10
2023-04-27T12:54:15.265Z,2.28
2023-04-27T12:56:42.371Z,2.47
2023-04-27T12:59:09.934Z,3.65
2023-04-27T13:01:37.366Z,4.63
2023-04-27T13:04:06.367Z,2.53
2023-04-27T13:06:33.627Z,2.05
2023-04-27T13:09:00.641Z,2.20
2023-04-27T13:11:27.820Z,2.60
2023-04-27T13:13:57.962Z,2.75
2023-04-27T13:16:25.817Z,2.40
2023-04-27T13:18:55.484Z,2.92
2023-04-27T13:21:23.330Z,2.40
2023-04-27T13:23:51.279Z,2.20
2023-04-27T13:26:19.125Z,2.22
2023-04-27T13:28:46.240Z,1.75
2023-04-27T13:31:13.338Z,2.58
2023-04-27T13:33:43.168Z,2.42
2023-04-27T13:36:11.541Z,2.25
2023-04-27T13:38:39.013Z,2.35
2023-04-27T13:41:06.768Z,2.33
2023-04-27T13:43:34.192Z,2.72
2023-04-27T13:46:02.528Z,2.00
2023-04-27T13:48:30.497Z,2.25
2023-04-27T13:50:57.889Z,2.42
2023-04-27T13:53:25.980Z,2.17
2023-04-27T13:55:57.458Z,1.95
2023-04-27T13:58:27.296Z,2.25
2023-04-27T14:00:54.818Z,2.00
2023-04-27T14:03:22.903Z,2.63
2023-04-27T14:05:51.426Z,2.05
2023-04-27T14:08:18.902Z,2.17
2023-04-27T14:10:46.322Z,2.00
2023-04-27T14:13:13.636Z,4.70
2023-04-27T14:15:41.814Z,2.97
2023-04-27T14:18:09.820Z,2.58
2023-04-27T14:20:38.794Z,2.13
2023-04-27T14:23:06.961Z,2.88
2023-04-27T14:25:34.970Z,2.53
2023-04-27T14:28:06.871Z,2.60
2023-04-27T14:30:35.058Z,2.20
2023-04-27T14:33:02.873Z,1.90
2023-04-27T14:35:30.251Z,1.77
2023-04-27T14:38:01.981Z,2.58
2023-04-27T14:40:30.858Z,1.50
2023-04-27T14:42:58.718Z,2.00
2023-04-27T14:45:30.972Z,1.65
2023-04-27T14:48:00.962Z,1.80
2023-04-27T14:50:28.679Z,1.88
2023-04-27T14:52:58.782Z,1.95
2023-04-27T14:55:26.029Z,1.70
2023-04-27T14:57:53.048Z,3.60
2023-04-27T15:00:20.330Z,2.42
2023-04-27T15:02:47.354Z,2.45
2023-04-27T15:05:14.395Z,3.45
2023-04-27T15:07:41.596Z,3.00
2023-04-27T15:10:09.447Z,2.17
2023-04-27T15:12:36.484Z,2.83
2023-04-27T15:15:03.757Z,2.30
2023-04-27T15:17:30.888Z,2.92
2023-04-27T15:19:57.972Z,3.97
2023-04-27T15:22:25.046Z,3.25
2023-04-27T15:24:52.853Z,2.60
2023-04-27T15:27:19.964Z,2.67
2023-04-27T15:29:46.926Z,2.38
2023-04-27T15:32:13.900Z,3.08
2023-04-27T15:34:44.483Z,3.13
2023-04-27T15:37:11.811Z,2.92
2023-04-27T15:39:38.863Z,2.95
2023-04-27T15:42:06.046Z,3.25
2023-04-27T15:44:33.182Z,3.05
2023-04-27T15:47:00.275Z,2.53
2023-04-27T15:49:27.694Z,4.00
2023-04-27T15:51:55.452Z,3.28
2023-04-27T15:54:22.640Z,3.25
2023-04-27T15:56:49.684Z,4.20
2023-04-27T15:59:16.896Z,4.07
2023-04-27T16:01:44.169Z,2.70
2023-04-27T16:04:11.574Z,3.03
2023-04-27T16:06:39.088Z,2.90
2023-04-27T16:09:10.413Z,2.97
2023-04-27T16:11:38.044Z,3.30
2023-04-27T16:14:05.191Z,3.45
2023-04-27T16:16:32.439Z,3.03
2023-04-27T16:18:59.553Z,3.15
2023-04-27T16:21:28.124Z,3.17
2023-04-27T16:23:55.104Z,2.92
2023-04-27T16:26:22.101Z,3.35
2023-04-27T16:28:49.166Z,3.00
2023-04-27T16:31:16.234Z,3.17
2023-04-27T16:33:43.235Z,2.85
2023-04-27T16:36:11.375Z,3.28
2023-04-27T16:38:39.512Z,3.50
2023-04-27T16:41:06.588Z,3.88
2023-04-27T16:43:33.985Z,3.70
2023-04-27T16:46:01.288Z,3.63
2023-04-27T16:48:28.483Z,2.97
2023-04-27T16:50:56.372Z,3.13
2023-04-27T16:53:23.719Z,2.90
2023-04-27T16:55:50.750Z,3.63
2023-04-27T16:58:17.839Z,3.10
2023-04-27T17:00:45.027Z,4.25
2023-04-27T17:03:12.220Z,3.33
2023-04-27T17:05:39.438Z,3.25
2023-04-27T17:08:06.478Z,4.13
2023-04-27T17:10:33.571Z,3.58
2023-04-27T17:13:00.614Z,3.00
2023-04-27T17:15:28.776Z,2.85
2023-04-27T17:17:56.388Z,3.17
2023-04-27T17:20:23.429Z,2.70
2023-04-27T17:22:50.482Z,3.03
2023-04-27T17:25:17.759Z,3.70
2023-04-27T17:27:44.828Z,3.00
2023-04-27T17:30:12.215Z,2.90
2023-04-27T17:32:39.486Z,2.42
2023-04-27T17:35:07.269Z,2.85
2023-04-27T17:37:34.226Z,3.42
2023-04-27T17:40:01.225Z,3.10
2023-04-27T17:42:28.227Z,3.20
2023-04-27T17:44:55.624Z,3.92
2023-04-27T17:47:25.367Z,4.53
2023-04-27T17:49:52.581Z,4.20
2023-04-27T17:52:19.639Z,3.65
2023-04-27T17:54:48.171Z,3.50
2023-04-27T17:57:15.153Z,3.97
2023-04-27T17:59:42.168Z,3.63
2023-04-27T18:02:09.272Z,4.18
2023-04-27T18:04:36.647Z,4.03
2023-04-27T18:07:03.876Z,3.80
2023-04-27T18:09:32.935Z,4.40
2023-04-27T18:12:00.746Z,3.90
2023-04-27T18:14:27.835Z,3.93
2023-04-27T18:16:55.010Z,3.80
2023-04-27T18:19:22.583Z,3.83
2023-04-27T18:21:49.598Z,3.90
2023-04-27T18:24:16.593Z,4.47
2023-04-27T18:26:43.576Z,5.40
2023-04-27T18:29:10.596Z,4.80
2023-04-27T18:31:38.074Z,4.03
2023-04-27T18:34:05.163Z,4.27
2023-04-27T18:36:32.345Z,4.70
2023-04-27T18:38:59.714Z,4.33
2023-04-27T18:41:26.685Z,5.50
2023-04-27T18:43:53.811Z,4.97
2023-04-27T18:46:21.081Z,5.20
2023-04-27T18:48:48.225Z,6.47
2023-04-27T18:51:15.202Z,6.57
2023-04-27T18:53:42.160Z,5.90
2023-04-27T18:56:10.259Z,5.80
2023-04-27T18:58:37.277Z,5.45
2023-04-27T19:01:04.361Z,6.20
2023-04-27T19:03:31.767Z,5.68
2023-04-27T19:05:58.952Z,5.77
2023-04-27T19:08:25.958Z,5.50
2023-04-27T19:10:52.956Z,6.40
2023-04-27T19:13:19.913Z,6.20
2023-04-27T19:15:46.946Z,6.43
2023-04-27T19:18:13.984Z,6.10
2023-04-27T19:20:40.978Z,7.03
2023-04-27T19:23:09.610Z,6.00
2023-04-27T19:25:37.274Z,6.10
2023-04-27T19:28:05.060Z,6.80
2023-04-27T19:30:32.116Z,7.07
2023-04-27T19:32:59.153Z,6.83
2023-04-27T19:35:27.685Z,7.50
2023-04-27T19:37:54.774Z,6.13
2023-04-27T19:40:21.938Z,6.77
2023-04-27T19:42:49.786Z,7.80
2023-04-27T19:45:18.070Z,6.67
2023-04-27T19:47:46.156Z,7.10
2023-04-27T19:50:13.331Z,6.13
2023-04-27T19:52:40.634Z,6.43
2023-04-27T19:55:08.448Z,6.43
2023-04-27T19:57:35.622Z,6.27
2023-04-27T20:00:05.256Z,7.80
2023-04-27T20:02:32.936Z,6.73
2023-04-27T20:05:00.182Z,6.33
2023-04-27T20:07:27.425Z,6.77
2023-04-27T20:09:54.415Z,6.83
2023-04-27T20:12:43.494Z,7.33
2023-04-27T20:15:09.648Z,6.50
2023-04-27T20:17:36.757Z,7.17
2023-04-27T20:20:10.511Z,6.77
2023-04-27T20:22:38.378Z,7.77
2023-04-27T20:25:06.638Z,8.33
2023-04-27T20:27:35.434Z,7.40
2023-04-27T20:30:02.673Z,7.60
2023-04-27T20:32:29.665Z,7.93
2023-04-27T20:34:56.638Z,8.73
2023-04-27T20:37:24.841Z,8.67
2023-04-27T20:39:52.213Z,8.63
2023-04-27T20:42:19.235Z,8.73
2023-04-27T20:44:46.384Z,8.97
2023-04-27T20:47:14.775Z,8.23
2023-04-27T20:49:42.262Z,8.97
2023-04-27T20:52:09.355Z,7.97
2023-04-27T20:54:36.580Z,8.70
2023-04-27T20:57:08.539Z,8.93
2023-04-27T20:59:35.569Z,8.67
2023-04-27T21:02:02.833Z,8.83
2023-04-27T21:04:29.994Z,8.37
2023-04-27T21:06:57.105Z,7.93
2023-04-27T21:09:24.119Z,8.23
2023-04-27T21:11:51.150Z,7.60
2023-04-27T21:14:18.163Z,8.43
2023-04-27T21:16:45.215Z,7.97
2023-04-27T21:19:14.772Z,7.70
2023-04-27T21:21:42.063Z,8.27
2023-04-27T21:24:09.208Z,7.30
2023-04-27T21:26:36.340Z,8.47
2023-04-27T21:29:05.739Z,8.33
2023-04-27T21:31:34.122Z,8.27
2023-04-27T21:34:03.557Z,7.80
2023-04-27T21:36:30.690Z,8.47
2023-04-27T21:38:57.671Z,7.37
2023-04-27T21:41:24.730Z,8.30
2023-04-27T21:43:51.779Z,7.67
2023-04-27T21:46:18.882Z,8.30
2023-04-27T21:48:46.065Z,7.60
2023-04-27T21:51:13.004Z,8.47
2023-04-27T21:53:40.016Z,8.03
2023-04-27T21:56:07.561Z,8.17
2023-04-27T21:58:34.660Z,8.70
2023-04-27T22:01:01.772Z,9.37
2023-04-27T22:03:29.054Z,9.17
2023-04-27T22:05:57.598Z,9.13
2023-04-27T22:08:24.764Z,9.57
2023-04-27T22:10:51.960Z,11.20
2023-04-27T22:13:19.798Z,9.37
2023-04-27T22:15:48.420Z,10.00
2023-04-27T22:18:15.845Z,9.87
2023-04-27T22:20:43.189Z,9.03
2023-04-27T22:23:10.823Z,9.40
2023-04-27T22:25:37.904Z,10.30
2023-04-27T22:28:05.147Z,9.67
2023-04-27T22:30:32.196Z,9.93
2023-04-27T22:32:59.244Z,10.07
2023-04-27T22:35:27.797Z,10.47
2023-04-27T22:37:56.085Z,11.40
2023-04-27T22:40:23.394Z,11.20
2023-04-27T22:42:50.785Z,10.40
2023-04-27T22:45:17.868Z,10.70
2023-04-27T22:47:46.033Z,10.80
2023-04-27T22:50:13.809Z,9.97
2023-04-27T22:52:44.397Z,10.67
2023-04-27T22:55:12.829Z,10.93
2023-04-27T22:57:41.867Z,10.77
2023-04-27T23:00:11.493Z,12.60
2023-04-27T23:02:40.542Z,11.23
2023-04-27T23:05:08.904Z,11.43
2023-04-27T23:07:36.298Z,11.33
2023-04-27T23:10:03.625Z,11.00
2023-04-27T23:12:31.386Z,11.50
2023-04-27T23:15:01.390Z,12.60
2023-04-27T23:17:31.282Z,11.17
2023-04-27T23:20:11.247Z,12.13
2023-04-27T23:22:44.322Z,11.40
2023-04-27T23:25:11.710Z,10.73
2023-04-27T23:27:38.760Z,11.90
2023-04-27T23:30:06.762Z,11.83
2023-04-27T23:32:36.113Z,12.73
2023-04-27T23:35:03.197Z,12.80
2023-04-27T23:37:30.180Z,13.13
2023-04-27T23:39:57.144Z,12.33
2023-04-27T23:42:24.138Z,12.70
2023-04-27T23:44:51.332Z,14.53
2023-04-27T23:47:18.445Z,13.53
2023-04-27T23:49:45.682Z,12.23
2023-04-27T23:52:12.648Z,13.33
2023-04-27T23:54:39.654Z,13.20
2023-04-27T23:57:06.741Z,14.43
2023-04-27T23:59:35.435Z,13.93
